sensor_id;sensor_type;location;lat;lon;timestamp;P1;durP1;ratioP1;P2;durP2;ratioP2
20986;SDS011;10652;50.306;8.570;2023-02-22T00:02:04;7.20;;;4.80;;
20986;SDS011;10652;50.306;8.570;2023-02-22T00:06:15;6.53;;;4.53;;
20986;SDS011;10652;50.306;8.570;2023-02-22T00:10:19;6.50;;;5.00;;
20986;SDS011;10652;50.306;8.570;2023-02-22T00:14:21;8.25;;;4.80;;
20986;SDS011;10652;50.306;8.570;2023-02-22T00:18:27;7.28;;;4.72;;
20986;SDS011;10652;50.306;8.570;2023-02-22T00:22:30;6.10;;;4.38;;
20986;SDS011;10652;50.306;8.570;2023-02-22T00:26:32;5.65;;;4.70;;
20986;SDS011;10652;50.306;8.570;2023-02-22T00:30:35;7.28;;;4.60;;
20986;SDS011;10652;50.306;8.570;2023-02-22T00:34:37;8.00;;;5.82;;
20986;SDS011;10652;50.306;8.570;2023-02-22T00:38:39;8.77;;;6.00;;
20986;SDS011;10652;50.306;8.570;2023-02-22T00:42:42;8.50;;;5.85;;
20986;SDS011;10652;50.306;8.570;2023-02-22T00:46:47;7.10;;;5.28;;
20986;SDS011;10652;50.306;8.570;2023-02-22T00:50:50;8.32;;;5.60;;
20986;SDS011;10652;50.306;8.570;2023-02-22T00:54:56;11.00;;;6.43;;
20986;SDS011;10652;50.306;8.570;2023-02-22T00:58:59;8.63;;;5.50;;
20986;SDS011;10652;50.306;8.570;2023-02-22T01:03:02;8.70;;;6.03;;
20986;SDS011;10652;50.306;8.570;2023-02-22T01:07:05;8.88;;;5.88;;
20986;SDS011;10652;50.306;8.570;2023-02-22T01:11:08;8.43;;;6.60;;
20986;SDS011;10652;50.306;8.570;2023-02-22T01:15:11;8.70;;;6.43;;
20986;SDS011;10652;50.306;8.570;2023-02-22T01:19:13;10.52;;;7.28;;
20986;SDS011;10652;50.306;8.570;2023-02-22T01:23:16;10.25;;;7.05;;
20986;SDS011;10652;50.306;8.570;2023-02-22T01:27:19;10.48;;;7.03;;
20986;SDS011;10652;50.306;8.570;2023-02-22T01:31:21;9.77;;;6.45;;
20986;SDS011;10652;50.306;8.570;2023-02-22T01:35:26;9.65;;;6.90;;
20986;SDS011;10652;50.306;8.570;2023-02-22T01:39:30;10.90;;;7.00;;
20986;SDS011;10652;50.306;8.570;2023-02-22T01:43:32;10.02;;;7.03;;
20986;SDS011;10652;50.306;8.570;2023-02-22T01:47:34;11.73;;;8.05;;
20986;SDS011;10652;50.306;8.570;2023-02-22T01:51:37;12.15;;;7.93;;
20986;SDS011;10652;50.306;8.570;2023-02-22T01:55:45;10.82;;;6.97;;
20986;SDS011;10652;50.306;8.570;2023-02-22T01:59:49;12.50;;;8.45;;
20986;SDS011;10652;50.306;8.570;2023-02-22T02:03:55;12.35;;;9.10;;
20986;SDS011;10652;50.306;8.570;2023-02-22T02:08:02;14.48;;;9.20;;
20986;SDS011;10652;50.306;8.570;2023-02-22T02:12:16;13.32;;;8.85;;
20986;SDS011;10652;50.306;8.570;2023-02-22T02:16:21;12.63;;;8.85;;
20986;SDS011;10652;50.306;8.570;2023-02-22T02:20:29;11.75;;;8.38;;
20986;SDS011;10652;50.306;8.570;2023-02-22T02:25:07;11.75;;;8.15;;
20986;SDS011;10652;50.306;8.570;2023-02-22T02:29:39;11.75;;;7.68;;
20986;SDS011;10652;50.306;8.570;2023-02-22T02:42:28;11.27;;;8.20;;
20986;SDS011;10652;50.306;8.570;2023-02-22T02:51:15;11.80;;;7.65;;
20986;SDS011;10652;50.306;8.570;2023-02-22T02:55:19;10.55;;;7.47;;
20986;SDS011;10652;50.306;8.570;2023-02-22T02:59:28;10.90;;;7.10;;
20986;SDS011;10652;50.306;8.570;2023-02-22T03:03:40;10.13;;;7.35;;
20986;SDS011;10652;50.306;8.570;2023-02-22T03:12:24;10.15;;;7.22;;
20986;SDS011;10652;50.306;8.570;2023-02-22T03:16:45;9.45;;;7.38;;
20986;SDS011;10652;50.306;8.570;2023-02-22T03:21:08;12.13;;;8.10;;
20986;SDS011;10652;50.306;8.570;2023-02-22T03:25:27;12.27;;;9.13;;
20986;SDS011;10652;50.306;8.570;2023-02-22T03:29:37;12.85;;;8.82;;
20986;SDS011;10652;50.306;8.570;2023-02-22T03:33:45;14.30;;;9.52;;
20986;SDS011;10652;50.306;8.570;2023-02-22T03:37:55;14.95;;;9.73;;
20986;SDS011;10652;50.306;8.570;2023-02-22T03:42:35;15.32;;;11.10;;
20986;SDS011;10652;50.306;8.570;2023-02-22T03:46:39;14.70;;;11.45;;
20986;SDS011;10652;50.306;8.570;2023-02-22T03:50:44;18.00;;;11.65;;
20986;SDS011;10652;50.306;8.570;2023-02-22T03:54:47;15.40;;;11.13;;
20986;SDS011;10652;50.306;8.570;2023-02-22T03:58:49;13.48;;;10.50;;
20986;SDS011;10652;50.306;8.570;2023-02-22T04:02:52;16.25;;;11.65;;
20986;SDS011;10652;50.306;8.570;2023-02-22T04:06:55;14.90;;;11.23;;
20986;SDS011;10652;50.306;8.570;2023-02-22T04:10:59;15.52;;;10.90;;
20986;SDS011;10652;50.306;8.570;2023-02-22T04:15:03;15.88;;;11.40;;
20986;SDS011;10652;50.306;8.570;2023-02-22T04:19:07;18.08;;;11.38;;
20986;SDS011;10652;50.306;8.570;2023-02-22T04:23:12;16.52;;;10.73;;
20986;SDS011;10652;50.306;8.570;2023-02-22T04:27:15;15.02;;;10.20;;
20986;SDS011;10652;50.306;8.570;2023-02-22T04:31:17;13.60;;;10.73;;
20986;SDS011;10652;50.306;8.570;2023-02-22T04:35:20;13.75;;;10.02;;
20986;SDS011;10652;50.306;8.570;2023-02-22T04:39:23;12.95;;;9.93;;
20986;SDS011;10652;50.306;8.570;2023-02-22T04:43:25;12.80;;;9.50;;
20986;SDS011;10652;50.306;8.570;2023-02-22T04:47:35;11.30;;;9.43;;
20986;SDS011;10652;50.306;8.570;2023-02-22T04:51:38;15.18;;;9.60;;
20986;SDS011;10652;50.306;8.570;2023-02-22T04:55:44;11.60;;;8.75;;
20986;SDS011;10652;50.306;8.570;2023-02-22T04:59:46;13.38;;;8.07;;
20986;SDS011;10652;50.306;8.570;2023-02-22T05:03:49;9.65;;;7.82;;
20986;SDS011;10652;50.306;8.570;2023-02-22T05:07:51;13.13;;;8.07;;
20986;SDS011;10652;50.306;8.570;2023-02-22T05:11:53;12.57;;;7.97;;
20986;SDS011;10652;50.306;8.570;2023-02-22T05:15:55;13.52;;;8.73;;
20986;SDS011;10652;50.306;8.570;2023-02-22T05:19:58;22.88;;;13.50;;
20986;SDS011;10652;50.306;8.570;2023-02-22T05:24:00;10.60;;;8.65;;
20986;SDS011;10652;50.306;8.570;2023-02-22T05:28:03;9.27;;;7.90;;
20986;SDS011;10652;50.306;8.570;2023-02-22T05:32:08;9.60;;;7.47;;
20986;SDS011;10652;50.306;8.570;2023-02-22T05:36:10;8.27;;;6.75;;
20986;SDS011;10652;50.306;8.570;2023-02-22T05:40:12;9.48;;;7.30;;
20986;SDS011;10652;50.306;8.570;2023-02-22T05:44:15;9.68;;;6.35;;
20986;SDS011;10652;50.306;8.570;2023-02-22T05:48:17;9.15;;;6.55;;
20986;SDS011;10652;50.306;8.570;2023-02-22T05:52:19;28.27;;;9.13;;
20986;SDS011;10652;50.306;8.570;2023-02-22T05:56:25;21.10;;;9.52;;
20986;SDS011;10652;50.306;8.570;2023-02-22T06:00:29;17.88;;;8.82;;
20986;SDS011;10652;50.306;8.570;2023-02-22T06:04:32;20.13;;;11.10;;
20986;SDS011;10652;50.306;8.570;2023-02-22T06:08:34;60.65;;;14.50;;
20986;SDS011;10652;50.306;8.570;2023-02-22T06:12:36;25.35;;;13.32;;
20986;SDS011;10652;50.306;8.570;2023-02-22T06:16:38;38.40;;;11.02;;
20986;SDS011;10652;50.306;8.570;2023-02-22T06:20:40;20.48;;;9.88;;
20986;SDS011;10652;50.306;8.570;2023-02-22T06:24:42;55.40;;;10.77;;
20986;SDS011;10652;50.306;8.570;2023-02-22T06:28:47;56.05;;;11.50;;
20986;SDS011;10652;50.306;8.570;2023-02-22T06:32:49;49.33;;;11.23;;
20986;SDS011;10652;50.306;8.570;2023-02-22T06:36:52;41.72;;;12.45;;
20986;SDS011;10652;50.306;8.570;2023-02-22T06:40:54;25.92;;;14.25;;
20986;SDS011;10652;50.306;8.570;2023-02-22T06:44:56;32.33;;;12.40;;
20986;SDS011;10652;50.306;8.570;2023-02-22T06:48:58;34.72;;;12.27;;
20986;SDS011;10652;50.306;8.570;2023-02-22T06:53:00;39.70;;;12.00;;
20986;SDS011;10652;50.306;8.570;2023-02-22T06:57:02;34.75;;;12.18;;
20986;SDS011;10652;50.306;8.570;2023-02-22T07:01:04;47.00;;;11.80;;
20986;SDS011;10652;50.306;8.570;2023-02-22T07:05:09;23.63;;;12.10;;
20986;SDS011;10652;50.306;8.570;2023-02-22T07:09:13;76.93;;;11.15;;
20986;SDS011;10652;50.306;8.570;2023-02-22T07:13:17;100.72;;;13.15;;
20986;SDS011;10652;50.306;8.570;2023-02-22T07:17:19;121.90;;;14.25;;
20986;SDS011;10652;50.306;8.570;2023-02-22T07:21:21;102.90;;;13.20;;
20986;SDS011;10652;50.306;8.570;2023-02-22T07:25:23;95.82;;;22.92;;
20986;SDS011;10652;50.306;8.570;2023-02-22T07:29:25;74.95;;;22.80;;
20986;SDS011;10652;50.306;8.570;2023-02-22T07:33:27;86.30;;;19.02;;
20986;SDS011;10652;50.306;8.570;2023-02-22T07:37:29;77.97;;;15.50;;
20986;SDS011;10652;50.306;8.570;2023-02-22T07:41:31;56.42;;;13.77;;
20986;SDS011;10652;50.306;8.570;2023-02-22T07:45:34;76.43;;;12.05;;
20986;SDS011;10652;50.306;8.570;2023-02-22T07:49:37;41.60;;;10.65;;
20986;SDS011;10652;50.306;8.570;2023-02-22T07:53:39;31.77;;;11.38;;
20986;SDS011;10652;50.306;8.570;2023-02-22T07:57:42;29.35;;;10.43;;
20986;SDS011;10652;50.306;8.570;2023-02-22T08:01:47;31.40;;;10.90;;
20986;SDS011;10652;50.306;8.570;2023-02-22T08:05:52;16.77;;;10.88;;
20986;SDS011;10652;50.306;8.570;2023-02-22T08:09:55;24.48;;;10.82;;
20986;SDS011;10652;50.306;8.570;2023-02-22T08:13:58;23.55;;;10.98;;
20986;SDS011;10652;50.306;8.570;2023-02-22T08:18:00;15.13;;;10.90;;
20986;SDS011;10652;50.306;8.570;2023-02-22T08:22:04;17.63;;;12.32;;
20986;SDS011;10652;50.306;8.570;2023-02-22T08:26:07;18.33;;;12.82;;
20986;SDS011;10652;50.306;8.570;2023-02-22T08:30:17;16.10;;;12.07;;
20986;SDS011;10652;50.306;8.570;2023-02-22T08:34:23;15.88;;;11.90;;
20986;SDS011;10652;50.306;8.570;2023-02-22T08:38:27;13.18;;;9.98;;
20986;SDS011;10652;50.306;8.570;2023-02-22T08:42:30;11.07;;;8.45;;
20986;SDS011;10652;50.306;8.570;2023-02-22T08:46:32;13.10;;;10.18;;
20986;SDS011;10652;50.306;8.570;2023-02-22T08:50:34;16.17;;;12.95;;
20986;SDS011;10652;50.306;8.570;2023-02-22T08:54:36;15.05;;;11.70;;
20986;SDS011;10652;50.306;8.570;2023-02-22T08:58:38;12.77;;;9.85;;
20986;SDS011;10652;50.306;8.570;2023-02-22T09:02:41;16.05;;;10.68;;
20986;SDS011;10652;50.306;8.570;2023-02-22T09:06:43;13.73;;;10.07;;
20986;SDS011;10652;50.306;8.570;2023-02-22T09:10:49;13.20;;;10.07;;
20986;SDS011;10652;50.306;8.570;2023-02-22T09:14:51;14.30;;;10.35;;
20986;SDS011;10652;50.306;8.570;2023-02-22T09:18:53;15.18;;;10.32;;
20986;SDS011;10652;50.306;8.570;2023-02-22T09:22:55;13.60;;;10.70;;
20986;SDS011;10652;50.306;8.570;2023-02-22T09:26:57;14.30;;;10.52;;
20986;SDS011;10652;50.306;8.570;2023-02-22T09:31:00;13.88;;;10.57;;
20986;SDS011;10652;50.306;8.570;2023-02-22T09:35:02;14.18;;;9.70;;
20986;SDS011;10652;50.306;8.570;2023-02-22T09:39:05;13.88;;;9.43;;
20986;SDS011;10652;50.306;8.570;2023-02-22T09:43:14;13.30;;;10.63;;
20986;SDS011;10652;50.306;8.570;2023-02-22T09:47:26;12.18;;;9.40;;
20986;SDS011;10652;50.306;8.570;2023-02-22T09:51:40;12.30;;;9.32;;
20986;SDS011;10652;50.306;8.570;2023-02-22T09:55:49;12.02;;;9.93;;
20986;SDS011;10652;50.306;8.570;2023-02-22T10:00:16;11.65;;;9.20;;
20986;SDS011;10652;50.306;8.570;2023-02-22T10:04:28;12.77;;;9.48;;
20986;SDS011;10652;50.306;8.570;2023-02-22T10:08:43;13.23;;;9.43;;
20986;SDS011;10652;50.306;8.570;2023-02-22T10:12:53;11.80;;;9.73;;
20986;SDS011;10652;50.306;8.570;2023-02-22T10:25:37;12.00;;;8.95;;
20986;SDS011;10652;50.306;8.570;2023-02-22T10:29:41;12.75;;;9.10;;
20986;SDS011;10652;50.306;8.570;2023-02-22T10:33:47;10.50;;;8.38;;
20986;SDS011;10652;50.306;8.570;2023-02-22T10:37:57;13.77;;;10.18;;
20986;SDS011;10652;50.306;8.570;2023-02-22T10:42:03;12.38;;;9.57;;
20986;SDS011;10652;50.306;8.570;2023-02-22T10:46:08;11.48;;;8.63;;
20986;SDS011;10652;50.306;8.570;2023-02-22T10:50:14;15.05;;;9.40;;
20986;SDS011;10652;50.306;8.570;2023-02-22T10:54:19;13.52;;;9.13;;
20986;SDS011;10652;50.306;8.570;2023-02-22T10:58:28;12.18;;;9.40;;
20986;SDS011;10652;50.306;8.570;2023-02-22T11:02:30;11.57;;;8.30;;
20986;SDS011;10652;50.306;8.570;2023-02-22T11:06:35;13.82;;;9.20;;
20986;SDS011;10652;50.306;8.570;2023-02-22T11:10:38;9.82;;;8.00;;
20986;SDS011;10652;50.306;8.570;2023-02-22T11:14:40;11.13;;;8.52;;
20986;SDS011;10652;50.306;8.570;2023-02-22T11:18:43;11.35;;;7.93;;
20986;SDS011;10652;50.306;8.570;2023-02-22T11:22:46;10.95;;;8.00;;
20986;SDS011;10652;50.306;8.570;2023-02-22T11:26:57;10.43;;;8.27;;
20986;SDS011;10652;50.306;8.570;2023-02-22T11:31:09;12.40;;;8.50;;
20986;SDS011;10652;50.306;8.570;2023-02-22T11:39:30;12.13;;;8.52;;
20986;SDS011;10652;50.306;8.570;2023-02-22T11:43:36;10.77;;;8.13;;
20986;SDS011;10652;50.306;8.570;2023-02-22T11:47:57;11.48;;;8.45;;
20986;SDS011;10652;50.306;8.570;2023-02-22T11:52:07;10.93;;;8.35;;
20986;SDS011;10652;50.306;8.570;2023-02-22T11:56:43;11.98;;;8.95;;
20986;SDS011;10652;50.306;8.570;2023-02-22T12:00:55;14.27;;;9.10;;
20986;SDS011;10652;50.306;8.570;2023-02-22T12:05:29;11.63;;;9.25;;
20986;SDS011;10652;50.306;8.570;2023-02-22T12:09:39;12.13;;;9.18;;
20986;SDS011;10652;50.306;8.570;2023-02-22T12:23:02;12.57;;;10.25;;
20986;SDS011;10652;50.306;8.570;2023-02-22T12:31:32;14.93;;;10.70;;
20986;SDS011;10652;50.306;8.570;2023-02-22T12:35:56;15.15;;;10.48;;
20986;SDS011;10652;50.306;8.570;2023-02-22T12:40:05;12.05;;;9.57;;
20986;SDS011;10652;50.306;8.570;2023-02-22T12:44:20;16.20;;;9.80;;
20986;SDS011;10652;50.306;8.570;2023-02-22T12:48:30;14.75;;;10.15;;
20986;SDS011;10652;50.306;8.570;2023-02-22T12:52:56;13.90;;;9.50;;
20986;SDS011;10652;50.306;8.570;2023-02-22T13:01:49;15.90;;;9.88;;
20986;SDS011;10652;50.306;8.570;2023-02-22T13:06:08;15.88;;;9.52;;
20986;SDS011;10652;50.306;8.570;2023-02-22T13:19:01;14.18;;;9.57;;
20986;SDS011;10652;50.306;8.570;2023-02-22T13:53:55;12.85;;;8.68;;
20986;SDS011;10652;50.306;8.570;2023-02-22T13:58:07;12.30;;;8.48;;
20986;SDS011;10652;50.306;8.570;2023-02-22T14:02:30;13.15;;;8.52;;
20986;SDS011;10652;50.306;8.570;2023-02-22T14:06:53;12.43;;;7.95;;
20986;SDS011;10652;50.306;8.570;2023-02-22T14:11:04;11.35;;;8.50;;
20986;SDS011;10652;50.306;8.570;2023-02-22T14:19:30;11.88;;;8.55;;
20986;SDS011;10652;50.306;8.570;2023-02-22T14:23:35;11.98;;;8.43;;
20986;SDS011;10652;50.306;8.570;2023-02-22T14:27:41;11.90;;;8.40;;
20986;SDS011;10652;50.306;8.570;2023-02-22T14:35:45;12.80;;;8.55;;
20986;SDS011;10652;50.306;8.570;2023-02-22T14:43:53;14.18;;;8.73;;
20986;SDS011;10652;50.306;8.570;2023-02-22T14:48:11;10.88;;;7.88;;
20986;SDS011;10652;50.306;8.570;2023-02-22T14:52:40;12.07;;;8.85;;
20986;SDS011;10652;50.306;8.570;2023-02-22T14:56:52;13.70;;;9.05;;
20986;SDS011;10652;50.306;8.570;2023-02-22T15:05:37;12.75;;;9.32;;
20986;SDS011;10652;50.306;8.570;2023-02-22T15:09:41;14.30;;;9.02;;
20986;SDS011;10652;50.306;8.570;2023-02-22T15:13:51;14.95;;;9.63;;
20986;SDS011;10652;50.306;8.570;2023-02-22T15:17:54;14.82;;;9.80;;
20986;SDS011;10652;50.306;8.570;2023-02-22T15:21:58;14.45;;;9.45;;
20986;SDS011;10652;50.306;8.570;2023-02-22T15:26:02;14.32;;;9.85;;
20986;SDS011;10652;50.306;8.570;2023-02-22T15:30:14;15.38;;;10.55;;
20986;SDS011;10652;50.306;8.570;2023-02-22T15:34:28;14.23;;;9.27;;
20986;SDS011;10652;50.306;8.570;2023-02-22T15:38:31;13.40;;;9.60;;
20986;SDS011;10652;50.306;8.570;2023-02-22T15:42:41;13.27;;;9.05;;
20986;SDS011;10652;50.306;8.570;2023-02-22T15:46:46;12.73;;;9.18;;
20986;SDS011;10652;50.306;8.570;2023-02-22T15:55:01;15.02;;;9.75;;
20986;SDS011;10652;50.306;8.570;2023-02-22T15:59:11;12.82;;;9.23;;
20986;SDS011;10652;50.306;8.570;2023-02-22T16:03:18;16.00;;;9.05;;
20986;SDS011;10652;50.306;8.570;2023-02-22T16:07:29;13.95;;;9.50;;
20986;SDS011;10652;50.306;8.570;2023-02-22T16:11:32;17.17;;;10.18;;
20986;SDS011;10652;50.306;8.570;2023-02-22T16:15:40;12.77;;;9.05;;
20986;SDS011;10652;50.306;8.570;2023-02-22T16:19:42;14.40;;;10.18;;
20986;SDS011;10652;50.306;8.570;2023-02-22T16:23:47;14.27;;;9.63;;
20986;SDS011;10652;50.306;8.570;2023-02-22T16:27:54;13.90;;;9.93;;
20986;SDS011;10652;50.306;8.570;2023-02-22T16:32:00;15.75;;;10.73;;
20986;SDS011;10652;50.306;8.570;2023-02-22T16:36:03;14.20;;;10.23;;
20986;SDS011;10652;50.306;8.570;2023-02-22T16:40:08;15.68;;;10.55;;
20986;SDS011;10652;50.306;8.570;2023-02-22T16:44:20;13.63;;;10.05;;
20986;SDS011;10652;50.306;8.570;2023-02-22T16:48:26;16.55;;;10.93;;
20986;SDS011;10652;50.306;8.570;2023-02-22T16:52:30;16.13;;;11.07;;
20986;SDS011;10652;50.306;8.570;2023-02-22T16:56:33;17.63;;;11.73;;
20986;SDS011;10652;50.306;8.570;2023-02-22T17:00:35;18.38;;;11.77;;
20986;SDS011;10652;50.306;8.570;2023-02-22T17:04:38;18.88;;;11.55;;
20986;SDS011;10652;50.306;8.570;2023-02-22T17:08:40;19.77;;;13.25;;
20986;SDS011;10652;50.306;8.570;2023-02-22T17:12:44;17.80;;;12.40;;
20986;SDS011;10652;50.306;8.570;2023-02-22T17:20:53;22.02;;;13.25;;
20986;SDS011;10652;50.306;8.570;2023-02-22T17:24:55;16.92;;;12.35;;
20986;SDS011;10652;50.306;8.570;2023-02-22T17:28:57;19.45;;;13.18;;
20986;SDS011;10652;50.306;8.570;2023-02-22T17:33:00;17.80;;;12.82;;
20986;SDS011;10652;50.306;8.570;2023-02-22T17:37:07;18.58;;;12.70;;
20986;SDS011;10652;50.306;8.570;2023-02-22T17:41:09;18.80;;;12.73;;
20986;SDS011;10652;50.306;8.570;2023-02-22T17:45:12;18.55;;;13.25;;
20986;SDS011;10652;50.306;8.570;2023-02-22T17:49:15;20.05;;;14.95;;
20986;SDS011;10652;50.306;8.570;2023-02-22T17:53:17;22.65;;;16.20;;
20986;SDS011;10652;50.306;8.570;2023-02-22T17:57:23;20.90;;;14.90;;
20986;SDS011;10652;50.306;8.570;2023-02-22T18:01:27;20.13;;;13.95;;
20986;SDS011;10652;50.306;8.570;2023-02-22T18:05:31;17.88;;;13.63;;
20986;SDS011;10652;50.306;8.570;2023-02-22T18:09:39;20.02;;;14.90;;
20986;SDS011;10652;50.306;8.570;2023-02-22T18:13:42;20.55;;;14.52;;
20986;SDS011;10652;50.306;8.570;2023-02-22T18:17:45;21.58;;;15.32;;
20986;SDS011;10652;50.306;8.570;2023-02-22T18:21:48;20.20;;;15.23;;
20986;SDS011;10652;50.306;8.570;2023-02-22T18:25:50;19.40;;;14.60;;
20986;SDS011;10652;50.306;8.570;2023-02-22T18:30:11;29.38;;;16.80;;
20986;SDS011;10652;50.306;8.570;2023-02-22T18:34:13;39.05;;;21.23;;
20986;SDS011;10652;50.306;8.570;2023-02-22T18:38:19;25.25;;;16.38;;
20986;SDS011;10652;50.306;8.570;2023-02-22T18:42:26;18.40;;;13.85;;
20986;SDS011;10652;50.306;8.570;2023-02-22T18:46:29;19.77;;;14.18;;
20986;SDS011;10652;50.306;8.570;2023-02-22T18:50:31;21.83;;;14.02;;
20986;SDS011;10652;50.306;8.570;2023-02-22T18:54:33;17.92;;;13.27;;
20986;SDS011;10652;50.306;8.570;2023-02-22T18:58:35;18.60;;;13.73;;
20986;SDS011;10652;50.306;8.570;2023-02-22T19:02:39;20.38;;;14.23;;
20986;SDS011;10652;50.306;8.570;2023-02-22T19:06:44;19.10;;;15.02;;
20986;SDS011;10652;50.306;8.570;2023-02-22T19:10:49;19.85;;;14.90;;
20986;SDS011;10652;50.306;8.570;2023-02-22T19:14:51;22.45;;;14.73;;
20986;SDS011;10652;50.306;8.570;2023-02-22T19:18:53;19.08;;;14.07;;
20986;SDS011;10652;50.306;8.570;2023-02-22T19:22:59;17.38;;;14.10;;
20986;SDS011;10652;50.306;8.570;2023-02-22T19:27:01;19.40;;;14.38;;
20986;SDS011;10652;50.306;8.570;2023-02-22T19:35:30;20.58;;;14.98;;
20986;SDS011;10652;50.306;8.570;2023-02-22T19:39:32;20.90;;;14.60;;
20986;SDS011;10652;50.306;8.570;2023-02-22T19:43:35;16.90;;;13.00;;
20986;SDS011;10652;50.306;8.570;2023-02-22T19:47:37;17.50;;;13.13;;
20986;SDS011;10652;50.306;8.570;2023-02-22T19:51:39;17.42;;;12.98;;
20986;SDS011;10652;50.306;8.570;2023-02-22T19:55:41;21.20;;;14.90;;
20986;SDS011;10652;50.306;8.570;2023-02-22T19:59:43;18.90;;;13.23;;
20986;SDS011;10652;50.306;8.570;2023-02-22T20:03:45;19.70;;;13.93;;
20986;SDS011;10652;50.306;8.570;2023-02-22T20:07:47;15.77;;;12.35;;
20986;SDS011;10652;50.306;8.570;2023-02-22T20:11:49;19.13;;;13.52;;
20986;SDS011;10652;50.306;8.570;2023-02-22T20:15:54;19.95;;;13.70;;
20986;SDS011;10652;50.306;8.570;2023-02-22T20:19:56;18.92;;;13.85;;
20986;SDS011;10652;50.306;8.570;2023-02-22T20:24:01;25.30;;;16.63;;
20986;SDS011;10652;50.306;8.570;2023-02-22T20:28:04;25.35;;;16.52;;
20986;SDS011;10652;50.306;8.570;2023-02-22T20:32:08;23.33;;;15.70;;
20986;SDS011;10652;50.306;8.570;2023-02-22T20:36:16;22.98;;;16.30;;
20986;SDS011;10652;50.306;8.570;2023-02-22T20:40:19;23.98;;;15.25;;
20986;SDS011;10652;50.306;8.570;2023-02-22T20:44:21;18.35;;;13.20;;
20986;SDS011;10652;50.306;8.570;2023-02-22T20:48:23;19.35;;;11.93;;
20986;SDS011;10652;50.306;8.570;2023-02-22T20:52:26;18.05;;;11.60;;
20986;SDS011;10652;50.306;8.570;2023-02-22T20:56:29;16.45;;;12.60;;
20986;SDS011;10652;50.306;8.570;2023-02-22T21:00:33;21.25;;;15.82;;
20986;SDS011;10652;50.306;8.570;2023-02-22T21:04:35;21.05;;;15.10;;
20986;SDS011;10652;50.306;8.570;2023-02-22T21:08:37;20.75;;;15.10;;
20986;SDS011;10652;50.306;8.570;2023-02-22T21:12:39;21.95;;;16.30;;
20986;SDS011;10652;50.306;8.570;2023-02-22T21:16:42;22.17;;;16.08;;
20986;SDS011;10652;50.306;8.570;2023-02-22T21:20:47;19.98;;;15.32;;
20986;SDS011;10652;50.306;8.570;2023-02-22T21:24:49;20.55;;;15.40;;
20986;SDS011;10652;50.306;8.570;2023-02-22T21:28:52;18.90;;;12.93;;
20986;SDS011;10652;50.306;8.570;2023-02-22T21:32:55;16.38;;;12.80;;
20986;SDS011;10652;50.306;8.570;2023-02-22T21:36:57;18.48;;;13.43;;
20986;SDS011;10652;50.306;8.570;2023-02-22T21:40:59;19.67;;;13.70;;
20986;SDS011;10652;50.306;8.570;2023-02-22T21:45:03;18.33;;;13.45;;
20986;SDS011;10652;50.306;8.570;2023-02-22T21:49:09;18.13;;;13.00;;
20986;SDS011;10652;50.306;8.570;2023-02-22T21:53:12;17.90;;;13.48;;
20986;SDS011;10652;50.306;8.570;2023-02-22T21:57:14;26.27;;;17.10;;
20986;SDS011;10652;50.306;8.570;2023-02-22T22:01:16;22.42;;;14.85;;
20986;SDS011;10652;50.306;8.570;2023-02-22T22:05:19;36.67;;;23.08;;
20986;SDS011;10652;50.306;8.570;2023-02-22T22:09:33;29.45;;;19.80;;
20986;SDS011;10652;50.306;8.570;2023-02-22T22:13:38;29.25;;;18.02;;
20986;SDS011;10652;50.306;8.570;2023-02-22T22:17:42;26.80;;;18.05;;
20986;SDS011;10652;50.306;8.570;2023-02-22T22:21:45;23.50;;;16.25;;
20986;SDS011;10652;50.306;8.570;2023-02-22T22:25:47;24.95;;;17.10;;
20986;SDS011;10652;50.306;8.570;2023-02-22T22:29:51;29.25;;;18.38;;
20986;SDS011;10652;50.306;8.570;2023-02-22T22:33:57;40.90;;;26.02;;
20986;SDS011;10652;50.306;8.570;2023-02-22T22:37:59;38.40;;;24.58;;
20986;SDS011;10652;50.306;8.570;2023-02-22T22:42:02;30.30;;;21.38;;
20986;SDS011;10652;50.306;8.570;2023-02-22T22:46:04;22.17;;;17.05;;
20986;SDS011;10652;50.306;8.570;2023-02-22T22:50:07;19.88;;;14.48;;
20986;SDS011;10652;50.306;8.570;2023-02-22T22:54:11;24.45;;;16.77;;
20986;SDS011;10652;50.306;8.570;2023-02-22T22:58:14;18.75;;;14.32;;
20986;SDS011;10652;50.306;8.570;2023-02-22T23:02:16;19.75;;;14.77;;
20986;SDS011;10652;50.306;8.570;2023-02-22T23:06:22;19.25;;;13.40;;
20986;SDS011;10652;50.306;8.570;2023-02-22T23:10:25;19.95;;;14.02;;
20986;SDS011;10652;50.306;8.570;2023-02-22T23:14:30;20.85;;;13.73;;
20986;SDS011;10652;50.306;8.570;2023-02-22T23:18:32;19.50;;;13.45;;
20986;SDS011;10652;50.306;8.570;2023-02-22T23:22:35;20.13;;;14.68;;
20986;SDS011;10652;50.306;8.570;2023-02-22T23:26:38;22.20;;;14.60;;
20986;SDS011;10652;50.306;8.570;2023-02-22T23:30:40;19.02;;;14.65;;
20986;SDS011;10652;50.306;8.570;2023-02-22T23:34:42;19.27;;;14.48;;
20986;SDS011;10652;50.306;8.570;2023-02-22T23:38:44;22.27;;;14.52;;
20986;SDS011;10652;50.306;8.570;2023-02-22T23:42:50;22.52;;;15.27;;
20986;SDS011;10652;50.306;8.570;2023-02-22T23:46:56;22.50;;;14.73;;
20986;SDS011;10652;50.306;8.570;2023-02-22T23:50:58;23.25;;;15.23;;
20986;SDS011;10652;50.306;8.570;2023-02-22T23:55:09;24.30;;;16.30;;
20986;SDS011;10652;50.306;8.570;2023-02-22T23:59:13;23.48;;;15.68;;
